La rose des vents
Donnes mto: Semaine 16/04/18 - 22/04/18 (S 16)
Date Horaire Temp. E. Hum. E. P.atmo. Pluie Vent 1mn Direction Ensoleilleme Ev.Tr. Solaire P. de rose Temp au vent Rafales
16/04/2018 00:00 15,2 C 60 % 1009,4 hPa 0,0 l/m 4,3 km/h (1 Bft) O-SO 0,00 h 0,051 mm 0 W/m 7,4 C 15,2 C 7,2 km/h (2 Bft)
16/04/2018 01:00 14,9 C 62 % 1009,4 hPa 0,0 l/m 0,1 km/h (0 Bft) O 0,00 h 0,051 mm 0 W/m 7,6 C 14,9 C 0,5 km/h (0 Bft)
16/04/2018 02:00 14,3 C 63 % 1009,0 hPa 0,0 l/m 0,2 km/h (0 Bft) O 0,00 h 0,025 mm 0 W/m 7,3 C 14,3 C 0,7 km/h (0 Bft)
16/04/2018 03:00 14,1 C 64 % 1009,1 hPa 0,0 l/m 0,1 km/h (0 Bft) O 0,00 h 0,025 mm 0 W/m 7,3 C 14,1 C 0,3 km/h (0 Bft)
16/04/2018 04:00 13,2 C 67 % 1009,0 hPa 0,0 l/m 0,0 km/h (0 Bft) N 0,00 h 0,025 mm 0 W/m 7,1 C 13,2 C 0,3 km/h (0 Bft)
16/04/2018 05:00 13,3 C 65 % 1008,7 hPa 0,0 l/m 0,0 km/h (0 Bft) N 0,00 h 0,025 mm 0 W/m 6,9 C 13,3 C 0,1 km/h (0 Bft)
16/04/2018 06:00 13,3 C 65 % 1009,0 hPa 0,0 l/m 0,0 km/h (0 Bft) N 0,00 h 0,025 mm 6 W/m 6,8 C 13,3 C 0,1 km/h (0 Bft)
16/04/2018 07:00 13,5 C 65 % 1009,7 hPa 0,0 l/m 0,0 km/h (0 Bft) N 0,00 h 0,000 mm 28 W/m 7,0 C 13,5 C 0,2 km/h (0 Bft)
16/04/2018 08:00 14,4 C 67 % 1010,4 hPa 0,0 l/m 0,0 km/h (0 Bft) N 0,18 h 0,025 mm 107 W/m 8,5 C 14,4 C 0,0 km/h (0 Bft)
16/04/2018 09:00 17,1 C 64 % 1010,8 hPa 0,0 l/m 0,1 km/h (0 Bft) O 0,90 h 0,051 mm 402 W/m 10,1 C 17,1 C 1,0 km/h (0 Bft)
16/04/2018 10:00 20,0 C 53 % 1011,4 hPa 0,0 l/m 0,9 km/h (0 Bft) S-SO 1,00 h 0,229 mm 594 W/m 10,0 C 20,0 C 3,0 km/h (1 Bft)
16/04/2018 11:00 21,1 C 48 % 1011,6 hPa 0,0 l/m 2,5 km/h (1 Bft) S 1,00 h 0,356 mm 646 W/m 9,6 C 21,1 C 6,0 km/h (2 Bft)
16/04/2018 12:00 21,7 C 46 % 1011,5 hPa 0,0 l/m 4,0 km/h (1 Bft) S 1,00 h 0,406 mm 684 W/m 9,7 C 21,7 C 8,3 km/h (2 Bft)
16/04/2018 13:00 22,3 C 46 % 1011,3 hPa 0,0 l/m 6,6 km/h (2 Bft) S 1,00 h 0,432 mm 756 W/m 10,1 C 22,3 C 11,4 km/h (2 Bft)
16/04/2018 14:00 22,4 C 46 % 1011,3 hPa 0,0 l/m 6,7 km/h (2 Bft) S-SE 1,00 h 0,508 mm 763 W/m 10,0 C 22,4 C 12,5 km/h (3 Bft)
16/04/2018 15:00 22,3 C 48 % 1011,4 hPa 0,0 l/m 4,7 km/h (1 Bft) S-SE 0,98 h 0,508 mm 601 W/m 10,8 C 22,3 C 9,2 km/h (2 Bft)
16/04/2018 16:00 21,2 C 56 % 1011,5 hPa 0,0 l/m 1,8 km/h (1 Bft) S-SE 0,93 h 0,406 mm 441 W/m 12,0 C 21,2 C 3,7 km/h (1 Bft)
16/04/2018 17:00 21,1 C 63 % 1011,2 hPa 0,0 l/m 0,8 km/h (0 Bft) S-SE 1,00 h 0,279 mm 414 W/m 13,7 C 21,1 C 2,3 km/h (1 Bft)
16/04/2018 18:00 19,6 C 62 % 1011,7 hPa 0,0 l/m 0,1 km/h (0 Bft) S-SE 0,28 h 0,254 mm 150 W/m 12,1 C 19,6 C 0,4 km/h (0 Bft)
16/04/2018 19:00 18,1 C 68 % 1012,0 hPa 0,0 l/m 0,0 km/h (0 Bft) N 0,68 h 0,102 mm 72 W/m 12,0 C 18,1 C 0,0 km/h (0 Bft)
16/04/2018 20:00 16,8 C 71 % 1012,5 hPa 0,0 l/m 0,0 km/h (0 Bft) N 0,12 h 0,051 mm 16 W/m 11,4 C 16,8 C 0,0 km/h (0 Bft)
16/04/2018 21:00 15,5 C 78 % 1013,4 hPa 0,0 l/m 0,0 km/h (0 Bft) N 0,00 h 0,000 mm 0 W/m 11,7 C 15,5 C 0,0 km/h (0 Bft)
16/04/2018 22:00 15,0 C 77 % 1014,0 hPa 0,0 l/m 0,0 km/h (0 Bft) N 0,00 h 0,025 mm 0 W/m 10,9 C 15,0 C 0,0 km/h (0 Bft)
16/04/2018 23:00 14,7 C 77 % 1014,3 hPa 0,0 l/m 0,0 km/h (0 Bft) N 0,00 h 0,025 mm 0 W/m 10,6 C 14,7 C 0,0 km/h (0 Bft)
17/04/2018 00:00 14,9 C 75 % 1014,6 hPa 0,0 l/m 0,0 km/h (0 Bft) N 0,00 h 0,025 mm 0 W/m 10,4 C 14,9 C 0,1 km/h (0 Bft)
17/04/2018 01:00 14,9 C 72 % 1015,0 hPa 0,0 l/m 0,1 km/h (0 Bft) S-SE 0,00 h 0,025 mm 0 W/m 10,0 C 14,9 C 0,1 km/h (0 Bft)
17/04/2018 02:00 14,2 C 74 % 1015,3 hPa 0,0 l/m 0,0 km/h (0 Bft) N 0,00 h 0,025 mm 0 W/m 9,6 C 14,2 C 0,0 km/h (0 Bft)
17/04/2018 03:00 13,5 C 80 % 1015,9 hPa 0,0 l/m 0,0 km/h (0 Bft) N 0,00 h 0,025 mm 0 W/m 10,1 C 13,5 C 0,2 km/h (0 Bft)
17/04/2018 04:00 12,7 C 92 % 1016,3 hPa 0,0 l/m 0,1 km/h (0 Bft) S-SE 0,00 h 0,025 mm 0 W/m 11,3 C 12,7 C 0,5 km/h (0 Bft)
17/04/2018 05:00 12,0 C 94 % 1016,7 hPa 0,0 l/m 0,0 km/h (0 Bft) N 0,00 h 0,000 mm 0 W/m 11,0 C 12,0 C 0,0 km/h (0 Bft)
17/04/2018 06:00 11,5 C 94 % 1017,5 hPa 0,0 l/m 0,0 km/h (0 Bft) N 0,02 h 0,000 mm 7 W/m 10,6 C 11,5 C 0,0 km/h (0 Bft)
17/04/2018 07:00 11,6 C 91 % 1018,4 hPa 0,0 l/m 0,0 km/h (0 Bft) N 0,00 h 0,000 mm 25 W/m 10,2 C 11,6 C 0,0 km/h (0 Bft)
17/04/2018 08:00 13,0 C 85 % 1019,2 hPa 0,0 l/m 0,0 km/h (0 Bft) N 0,22 h 0,025 mm 103 W/m 10,4 C 13,0 C 0,0 km/h (0 Bft)
17/04/2018 09:00 16,0 C 78 % 1020,0 hPa 0,0 l/m 0,0 km/h (0 Bft) N 1,00 h 0,051 mm 429 W/m 12,0 C 16,0 C 0,0 km/h (0 Bft)
17/04/2018 10:00 19,8 C 66 % 1020,4 hPa 0,0 l/m 0,6 km/h (0 Bft) S-SE 1,00 h 0,229 mm 599 W/m 13,3 C 19,8 C 2,5 km/h (1 Bft)
17/04/2018 11:00 20,8 C 67 % 1020,7 hPa 0,0 l/m 1,4 km/h (1 Bft) S-SE 1,00 h 0,356 mm 727 W/m 14,5 C 20,8 C 4,1 km/h (1 Bft)
17/04/2018 12:00 20,1 C 72 % 1020,9 hPa 0,0 l/m 3,8 km/h (1 Bft) SE 1,00 h 0,432 mm 807 W/m 14,9 C 20,1 C 8,1 km/h (2 Bft)
17/04/2018 13:00 19,7 C 75 % 1021,0 hPa 0,0 l/m 1,5 km/h (1 Bft) SE 1,00 h 0,483 mm 832 W/m 15,1 C 19,7 C 4,8 km/h (1 Bft)
17/04/2018 14:00 21,5 C 66 % 1021,0 hPa 0,0 l/m 0,2 km/h (0 Bft) SE 1,00 h 0,483 mm 801 W/m 14,8 C 21,5 C 1,5 km/h (1 Bft)
17/04/2018 15:00 23,4 C 54 % 1020,8 hPa 0,0 l/m 1,1 km/h (1 Bft) SE 1,00 h 0,483 mm 713 W/m 13,6 C 23,4 C 3,8 km/h (1 Bft)
17/04/2018 16:00 23,8 C 51 % 1020,9 hPa 0,0 l/m 1,2 km/h (1 Bft) E-SE 1,00 h 0,432 mm 579 W/m 13,1 C 23,8 C 4,2 km/h (1 Bft)
17/04/2018 17:00 23,4 C 51 % 1020,9 hPa 0,0 l/m 0,7 km/h (0 Bft) E-SE 1,00 h 0,381 mm 414 W/m 12,6 C 23,4 C 2,6 km/h (1 Bft)
17/04/2018 18:00 22,3 C 57 % 1021,3 hPa 0,0 l/m 0,0 km/h (0 Bft) N 1,00 h 0,254 mm 234 W/m 13,4 C 22,3 C 0,2 km/h (0 Bft)
17/04/2018 19:00 21,4 C 57 % 1021,4 hPa 0,0 l/m 0,0 km/h (0 Bft) N 0,10 h 0,152 mm 55 W/m 12,7 C 21,4 C 0,0 km/h (0 Bft)
17/04/2018 20:00 19,6 C 64 % 1022,0 hPa 0,0 l/m 0,0 km/h (0 Bft) N 0,00 h 0,051 mm 7 W/m 12,7 C 19,6 C 0,0 km/h (0 Bft)
17/04/2018 21:00 18,4 C 66 % 1022,7 hPa 0,0 l/m 0,0 km/h (0 Bft) N 0,00 h 0,000 mm 0 W/m 12,0 C 18,4 C 0,0 km/h (0 Bft)
17/04/2018 22:00 18,0 C 64 % 1023,4 hPa 0,0 l/m 0,0 km/h (0 Bft) N 0,00 h 0,025 mm 0 W/m 11,2 C 18,0 C 0,0 km/h (0 Bft)
17/04/2018 23:00 17,6 C 64 % 1023,6 hPa 0,0 l/m 0,0 km/h (0 Bft) N 0,00 h 0,025 mm 0 W/m 10,8 C 17,6 C 0,1 km/h (0 Bft)
18/04/2018 00:00 17,3 C 64 % 1024,0 hPa 0,0 l/m 0,0 km/h (0 Bft) N 0,00 h 0,025 mm 0 W/m 10,4 C 17,3 C 0,0 km/h (0 Bft)
18/04/2018 01:00 17,1 C 64 % 1024,2 hPa 0,0 l/m 0,0 km/h (0 Bft) E-SE 0,00 h 0,025 mm 0 W/m 10,3 C 17,1 C 0,1 km/h (0 Bft)
18/04/2018 02:00 17,1 C 64 % 1024,0 hPa 0,0 l/m 0,0 km/h (0 Bft) N 0,00 h 0,025 mm 0 W/m 10,2 C 17,1 C 0,0 km/h (0 Bft)
18/04/2018 03:00 16,7 C 64 % 1024,0 hPa 0,0 l/m 0,0 km/h (0 Bft) N 0,00 h 0,025 mm 0 W/m 10,0 C 16,7 C 0,1 km/h (0 Bft)
18/04/2018 04:00 16,3 C 65 % 1024,3 hPa 0,0 l/m 0,0 km/h (0 Bft) N 0,00 h 0,025 mm 0 W/m 9,6 C 16,3 C 0,1 km/h (0 Bft)
18/04/2018 05:00 16,3 C 64 % 1024,6 hPa 0,0 l/m 0,0 km/h (0 Bft) N 0,00 h 0,025 mm 0 W/m 9,4 C 16,3 C 0,2 km/h (0 Bft)
18/04/2018 06:00 15,4 C 65 % 1025,1 hPa 0,0 l/m 0,0 km/h (0 Bft) E-SE 0,02 h 0,025 mm 7 W/m 9,0 C 15,4 C 0,2 km/h (0 Bft)
18/04/2018 07:00 15,9 C 64 % 1025,8 hPa 0,0 l/m 0,1 km/h (0 Bft) E-SE 0,00 h 0,000 mm 40 W/m 9,1 C 15,9 C 0,2 km/h (0 Bft)
18/04/2018 08:00 17,0 C 65 % 1026,2 hPa 0,0 l/m 0,0 km/h (0 Bft) E-SE 0,12 h 0,025 mm 151 W/m 10,2 C 17,0 C 0,4 km/h (0 Bft)
18/04/2018 09:00 20,3 C 57 % 1026,4 hPa 0,0 l/m 0,1 km/h (0 Bft) E-SE 0,95 h 0,102 mm 491 W/m 11,4 C 20,3 C 0,8 km/h (0 Bft)
18/04/2018 10:00 23,7 C 46 % 1026,5 hPa 0,0 l/m 0,3 km/h (0 Bft) E-SE 1,00 h 0,279 mm 622 W/m 11,3 C 23,7 C 1,9 km/h (1 Bft)
18/04/2018 11:00 24,5 C 42 % 1026,8 hPa 0,0 l/m 1,8 km/h (1 Bft) E-SE 1,00 h 0,381 mm 739 W/m 10,9 C 24,5 C 5,7 km/h (1 Bft)
18/04/2018 12:00 24,5 C 42 % 1026,9 hPa 0,0 l/m 1,8 km/h (1 Bft) E 0,93 h 0,457 mm 754 W/m 10,8 C 24,5 C 5,8 km/h (2 Bft)
18/04/2018 13:00 24,7 C 42 % 1026,6 hPa 0,0 l/m 4,0 km/h (1 Bft) SE 1,00 h 0,483 mm 820 W/m 10,9 C 24,7 C 9,1 km/h (2 Bft)
18/04/2018 14:00 24,1 C 43 % 1026,7 hPa 0,0 l/m 3,2 km/h (1 Bft) E-SE 1,00 h 0,559 mm 784 W/m 10,9 C 24,1 C 6,9 km/h (2 Bft)
18/04/2018 15:00 24,6 C 43 % 1025,9 hPa 0,0 l/m 2,5 km/h (1 Bft) E-SE 1,00 h 0,508 mm 700 W/m 11,1 C 24,6 C 7,1 km/h (2 Bft)
18/04/2018 16:00 24,4 C 43 % 1025,5 hPa 0,0 l/m 1,2 km/h (1 Bft) E-SE 0,88 h 0,457 mm 522 W/m 10,9 C 24,4 C 3,8 km/h (1 Bft)
18/04/2018 17:00 24,1 C 42 % 1025,4 hPa 0,0 l/m 0,2 km/h (0 Bft) E 0,97 h 0,330 mm 381 W/m 10,2 C 24,1 C 1,6 km/h (1 Bft)
18/04/2018 18:00 23,5 C 42 % 1025,2 hPa 0,0 l/m 0,0 km/h (0 Bft) N 0,90 h 0,254 mm 232 W/m 9,9 C 23,5 C 0,2 km/h (0 Bft)
18/04/2018 19:00 22,2 C 45 % 1025,4 hPa 0,0 l/m 0,0 km/h (0 Bft) N 0,40 h 0,152 mm 74 W/m 9,7 C 22,2 C 0,0 km/h (0 Bft)
18/04/2018 20:00 19,8 C 50 % 1025,7 hPa 0,0 l/m 0,2 km/h (0 Bft) E 0,07 h 0,051 mm 12 W/m 9,2 C 19,8 C 0,4 km/h (0 Bft)
18/04/2018 21:00 18,3 C 55 % 1026,1 hPa 0,0 l/m 0,0 km/h (0 Bft) E 0,00 h 0,025 mm 0 W/m 9,1 C 18,3 C 0,3 km/h (0 Bft)
18/04/2018 22:00 17,2 C 59 % 1026,4 hPa 0,0 l/m 0,1 km/h (0 Bft) E 0,00 h 0,051 mm 0 W/m 9,2 C 17,2 C 0,8 km/h (0 Bft)
18/04/2018 23:00 17,1 C 59 % 1026,5 hPa 0,0 l/m 0,3 km/h (0 Bft) E-NE 0,00 h 0,025 mm 0 W/m 9,1 C 17,1 C 2,2 km/h (1 Bft)
19/04/2018 00:00 16,7 C 60 % 1026,6 hPa 0,0 l/m 0,4 km/h (0 Bft) E-NE 0,00 h 0,025 mm 0 W/m 8,9 C 16,7 C 2,2 km/h (1 Bft)
19/04/2018 01:00 16,5 C 60 % 1026,9 hPa 0,0 l/m 0,7 km/h (0 Bft) NE 0,00 h 0,025 mm 0 W/m 8,8 C 16,5 C 2,5 km/h (1 Bft)
19/04/2018 02:00 16,3 C 60 % 1026,8 hPa 0,0 l/m 0,1 km/h (0 Bft) NO 0,00 h 0,025 mm 0 W/m 8,5 C 16,3 C 0,7 km/h (0 Bft)
19/04/2018 03:00 15,8 C 61 % 1026,4 hPa 0,0 l/m 0,4 km/h (0 Bft) NO 0,00 h 0,025 mm 0 W/m 8,2 C 15,8 C 2,3 km/h (1 Bft)
19/04/2018 04:00 15,6 C 60 % 1026,3 hPa 0,0 l/m 0,0 km/h (0 Bft) N 0,00 h 0,025 mm 0 W/m 7,9 C 15,6 C 0,1 km/h (0 Bft)
19/04/2018 05:00 15,5 C 57 % 1025,9 hPa 0,0 l/m 0,0 km/h (0 Bft) N 0,00 h 0,025 mm 0 W/m 7,1 C 15,5 C 0,1 km/h (0 Bft)
19/04/2018 06:00 15,3 C 52 % 1025,6 hPa 0,0 l/m 0,3 km/h (0 Bft) NO 0,03 h 0,025 mm 10 W/m 5,6 C 15,3 C 1,4 km/h (1 Bft)
19/04/2018 07:00 15,8 C 51 % 1025,7 hPa 0,0 l/m 0,0 km/h (0 Bft) N 0,00 h 0,025 mm 31 W/m 5,7 C 15,8 C 0,1 km/h (0 Bft)
19/04/2018 08:00 16,5 C 51 % 1026,1 hPa 0,0 l/m 0,0 km/h (0 Bft) N 0,22 h 0,025 mm 116 W/m 6,2 C 16,5 C 0,0 km/h (0 Bft)
19/04/2018 09:00 19,6 C 47 % 1026,5 hPa 0,0 l/m 0,1 km/h (0 Bft) N-NE 1,00 h 0,076 mm 441 W/m 8,0 C 19,6 C 1,1 km/h (1 Bft)
19/04/2018 10:00 22,1 C 40 % 1026,9 hPa 0,0 l/m 0,7 km/h (0 Bft) E-SE 1,00 h 0,254 mm 601 W/m 7,9 C 22,1 C 2,8 km/h (1 Bft)
19/04/2018 11:00 23,2 C 40 % 1026,8 hPa 0,0 l/m 2,3 km/h (1 Bft) S 1,00 h 0,381 mm 724 W/m 8,7 C 23,2 C 6,0 km/h (2 Bft)
19/04/2018 12:00 23,3 C 43 % 1026,4 hPa 0,0 l/m 5,8 km/h (2 Bft) S 1,00 h 0,457 mm 801 W/m 10,0 C 23,3 C 11,4 km/h (2 Bft)
19/04/2018 13:00 23,5 C 46 % 1026,3 hPa 0,0 l/m 3,6 km/h (1 Bft) E 1,00 h 0,533 mm 826 W/m 11,3 C 23,5 C 9,7 km/h (2 Bft)
19/04/2018 14:00 23,3 C 45 % 1026,0 hPa 0,0 l/m 1,4 km/h (1 Bft) E-SE 1,00 h 0,533 mm 791 W/m 10,7 C 23,3 C 4,9 km/h (1 Bft)
19/04/2018 15:00 23,7 C 41 % 1025,7 hPa 0,0 l/m 1,1 km/h (1 Bft) E-SE 1,00 h 0,483 mm 711 W/m 9,5 C 23,7 C 3,9 km/h (1 Bft)
19/04/2018 16:00 24,0 C 39 % 1025,2 hPa 0,0 l/m 0,1 km/h (0 Bft) E 1,00 h 0,457 mm 584 W/m 9,1 C 24,0 C 0,8 km/h (0 Bft)
19/04/2018 17:00 24,2 C 36 % 1024,8 hPa 0,0 l/m 0,0 km/h (0 Bft) E 1,00 h 0,356 mm 424 W/m 8,3 C 24,2 C 0,8 km/h (0 Bft)
19/04/2018 18:00 23,4 C 40 % 1024,4 hPa 0,0 l/m 0,0 km/h (0 Bft) N 1,00 h 0,279 mm 243 W/m 9,0 C 23,4 C 0,4 km/h (0 Bft)
19/04/2018 19:00 21,3 C 47 % 1024,4 hPa 0,0 l/m 0,0 km/h (0 Bft) N 0,32 h 0,152 mm 66 W/m 9,6 C 21,3 C 0,2 km/h (0 Bft)
19/04/2018 20:00 19,0 C 54 % 1024,5 hPa 0,0 l/m 0,0 km/h (0 Bft) N 0,03 h 0,051 mm 10 W/m 9,5 C 19,0 C 0,0 km/h (0 Bft)
19/04/2018 21:00 17,6 C 57 % 1024,7 hPa 0,0 l/m 0,0 km/h (0 Bft) E 0,00 h 0,000 mm 0 W/m 9,0 C 17,6 C 0,2 km/h (0 Bft)
19/04/2018 22:00 17,1 C 58 % 1024,8 hPa 0,0 l/m 0,0 km/h (0 Bft) N 0,00 h 0,051 mm 0 W/m 8,8 C 17,1 C 0,3 km/h (0 Bft)
19/04/2018 23:00 17,0 C 58 % 1024,4 hPa 0,0 l/m 0,3 km/h (0 Bft) E 0,00 h 0,025 mm 0 W/m 8,5 C 17,0 C 2,5 km/h (1 Bft)
20/04/2018 00:00 16,9 C 57 % 1024,0 hPa 0,0 l/m 0,3 km/h (0 Bft) NO 0,00 h 0,051 mm 0 W/m 8,4 C 16,9 C 2,3 km/h (1 Bft)
20/04/2018 01:00 16,2 C 58 % 1023,9 hPa 0,0 l/m 0,1 km/h (0 Bft) NO 0,00 h 0,051 mm 0 W/m 7,9 C 16,2 C 1,7 km/h (1 Bft)
20/04/2018 02:00 16,0 C 56 % 1023,7 hPa 0,0 l/m 0,8 km/h (0 Bft) NO 0,00 h 0,025 mm 0 W/m 7,4 C 16,0 C 3,6 km/h (1 Bft)
20/04/2018 03:00 16,0 C 55 % 1023,3 hPa 0,0 l/m 0,2 km/h (0 Bft) O-NO 0,00 h 0,051 mm 0 W/m 6,9 C 16,0 C 1,6 km/h (1 Bft)
20/04/2018 04:00 16,5 C 50 % 1023,2 hPa 0,0 l/m 0,0 km/h (0 Bft) N 0,00 h 0,051 mm 0 W/m 6,1 C 16,5 C 0,3 km/h (0 Bft)
20/04/2018 05:00 16,4 C 49 % 1023,1 hPa 0,0 l/m 0,0 km/h (0 Bft) N 0,00 h 0,051 mm 0 W/m 5,5 C 16,4 C 0,1 km/h (0 Bft)
20/04/2018 06:00 16,5 C 47 % 1023,1 hPa 0,0 l/m 0,0 km/h (0 Bft) N 0,05 h 0,051 mm 10 W/m 5,1 C 16,5 C 0,2 km/h (0 Bft)
20/04/2018 07:00 16,6 C 48 % 1023,4 hPa 0,0 l/m 0,1 km/h (0 Bft) O-NO 0,00 h 0,025 mm 31 W/m 5,5 C 16,6 C 0,8 km/h (0 Bft)
20/04/2018 08:00 17,5 C 50 % 1023,4 hPa 0,0 l/m 0,1 km/h (0 Bft) O-NO 0,22 h 0,025 mm 119 W/m 6,9 C 17,5 C 0,6 km/h (0 Bft)
20/04/2018 09:00 20,5 C 47 % 1023,4 hPa 0,0 l/m 0,0 km/h (0 Bft) N 1,00 h 0,076 mm 450 W/m 9,0 C 20,5 C 0,1 km/h (0 Bft)
20/04/2018 10:00 24,1 C 38 % 1023,6 hPa 0,0 l/m 0,2 km/h (0 Bft) O-NO 1,00 h 0,279 mm 616 W/m 8,9 C 24,1 C 1,3 km/h (1 Bft)
20/04/2018 11:00 26,0 C 34 % 1023,7 hPa 0,0 l/m 2,3 km/h (1 Bft) E-SE 1,00 h 0,381 mm 743 W/m 9,1 C 26,0 C 6,7 km/h (2 Bft)
20/04/2018 12:00 26,2 C 34 % 1023,7 hPa 0,0 l/m 2,1 km/h (1 Bft) E 1,00 h 0,508 mm 819 W/m 9,2 C 26,2 C 6,4 km/h (2 Bft)
20/04/2018 13:00 25,9 C 37 % 1023,4 hPa 0,0 l/m 2,0 km/h (1 Bft) S 1,00 h 0,559 mm 842 W/m 10,2 C 25,9 C 5,4 km/h (1 Bft)
20/04/2018 14:00 26,6 C 38 % 1023,0 hPa 0,0 l/m 2,6 km/h (1 Bft) E 1,00 h 0,559 mm 808 W/m 11,0 C 26,6 C 7,4 km/h (2 Bft)
20/04/2018 15:00 26,5 C 35 % 1022,5 hPa 0,0 l/m 2,7 km/h (1 Bft) E-SE 1,00 h 0,533 mm 727 W/m 9,9 C 26,5 C 6,8 km/h (2 Bft)
20/04/2018 16:00 26,5 C 32 % 1021,6 hPa 0,0 l/m 0,8 km/h (0 Bft) E 1,00 h 0,508 mm 593 W/m 8,4 C 26,5 C 3,6 km/h (1 Bft)
20/04/2018 17:00 26,5 C 31 % 1021,1 hPa 0,0 l/m 0,2 km/h (0 Bft) E 1,00 h 0,406 mm 431 W/m 7,8 C 26,5 C 1,0 km/h (0 Bft)
20/04/2018 18:00 26,2 C 31 % 1020,7 hPa 0,0 l/m 0,0 km/h (0 Bft) E 1,00 h 0,279 mm 246 W/m 7,6 C 26,2 C 0,3 km/h (0 Bft)
20/04/2018 19:00 25,2 C 32 % 1020,1 hPa 0,0 l/m 0,3 km/h (0 Bft) E 0,33 h 0,178 mm 68 W/m 7,5 C 25,2 C 1,1 km/h (0 Bft)
20/04/2018 20:00 22,6 C 39 % 1020,1 hPa 0,0 l/m 0,0 km/h (0 Bft) N 0,03 h 0,051 mm 9 W/m 7,9 C 22,6 C 0,4 km/h (0 Bft)
20/04/2018 21:00 20,8 C 43 % 1020,5 hPa 0,0 l/m 0,1 km/h (0 Bft) E 0,00 h 0,025 mm 0 W/m 7,6 C 20,8 C 0,7 km/h (0 Bft)
20/04/2018 22:00 19,7 C 44 % 1020,4 hPa 0,0 l/m 0,0 km/h (0 Bft) E 0,00 h 0,051 mm 0 W/m 7,2 C 19,7 C 0,4 km/h (0 Bft)
20/04/2018 23:00 19,3 C 45 % 1020,3 hPa 0,0 l/m 0,1 km/h (0 Bft) E 0,00 h 0,051 mm 0 W/m 7,2 C 19,3 C 0,5 km/h (0 Bft)
21/04/2018 00:00 18,9 C 46 % 1020,0 hPa 0,0 l/m 0,1 km/h (0 Bft) E 0,00 h 0,051 mm 0 W/m 7,0 C 18,9 C 1,2 km/h (1 Bft)
21/04/2018 01:00 18,2 C 48 % 1019,9 hPa 0,0 l/m 0,2 km/h (0 Bft) E 0,00 h 0,051 mm 0 W/m 6,9 C 18,2 C 1,0 km/h (0 Bft)
21/04/2018 02:00 17,9 C 46 % 1019,8 hPa 0,0 l/m 0,0 km/h (0 Bft) N 0,00 h 0,051 mm 0 W/m 6,2 C 17,9 C 0,3 km/h (0 Bft)
21/04/2018 03:00 17,6 C 46 % 1019,5 hPa 0,0 l/m 0,0 km/h (0 Bft) N 0,00 h 0,051 mm 0 W/m 5,9 C 17,6 C 0,3 km/h (0 Bft)
21/04/2018 04:00 17,3 C 45 % 1019,4 hPa 0,0 l/m 0,0 km/h (0 Bft) E 0,00 h 0,051 mm 0 W/m 5,2 C 17,3 C 0,3 km/h (0 Bft)
21/04/2018 05:00 17,4 C 43 % 1019,3 hPa 0,0 l/m 0,0 km/h (0 Bft) E 0,00 h 0,051 mm 0 W/m 4,8 C 17,4 C 0,4 km/h (0 Bft)
21/04/2018 06:00 17,3 C 43 % 1019,1 hPa 0,0 l/m 0,0 km/h (0 Bft) E 0,02 h 0,051 mm 10 W/m 4,5 C 17,3 C 0,2 km/h (0 Bft)
21/04/2018 07:00 17,3 C 44 % 1019,5 hPa 0,0 l/m 0,4 km/h (0 Bft) NO 0,00 h 0,025 mm 31 W/m 5,0 C 17,3 C 2,1 km/h (1 Bft)
21/04/2018 08:00 18,9 C 45 % 1019,7 hPa 0,0 l/m 0,2 km/h (0 Bft) NO 0,28 h 0,025 mm 129 W/m 6,8 C 18,9 C 1,0 km/h (0 Bft)
21/04/2018 09:00 21,9 C 43 % 1019,9 hPa 0,0 l/m 0,1 km/h (0 Bft) E 1,00 h 0,076 mm 460 W/m 8,8 C 21,9 C 0,5 km/h (0 Bft)
21/04/2018 10:00 25,4 C 36 % 1019,9 hPa 0,0 l/m 0,2 km/h (0 Bft) E 1,00 h 0,279 mm 625 W/m 9,1 C 25,4 C 1,5 km/h (1 Bft)
21/04/2018 11:00 26,2 C 32 % 1020,3 hPa 0,0 l/m 4,6 km/h (1 Bft) E 1,00 h 0,406 mm 757 W/m 8,3 C 26,2 C 9,8 km/h (2 Bft)
21/04/2018 12:00 26,1 C 35 % 1020,2 hPa 0,0 l/m 2,7 km/h (1 Bft) E 1,00 h 0,533 mm 832 W/m 9,3 C 26,1 C 6,6 km/h (2 Bft)
21/04/2018 13:00 27,2 C 34 % 1019,5 hPa 0,0 l/m 3,0 km/h (1 Bft) E-SE 1,00 h 0,559 mm 851 W/m 9,7 C 27,2 C 7,4 km/h (2 Bft)
21/04/2018 14:00 27,7 C 34 % 1019,2 hPa 0,0 l/m 3,1 km/h (1 Bft) E 1,00 h 0,584 mm 812 W/m 10,3 C 27,7 C 7,3 km/h (2 Bft)
21/04/2018 15:00 27,8 C 34 % 1018,9 hPa 0,0 l/m 2,7 km/h (1 Bft) S-SE 1,00 h 0,559 mm 724 W/m 10,2 C 27,8 C 6,8 km/h (2 Bft)
21/04/2018 16:00 27,0 C 34 % 1018,3 hPa 0,0 l/m 3,3 km/h (1 Bft) S-SE 1,00 h 0,508 mm 591 W/m 9,6 C 27,0 C 7,5 km/h (2 Bft)
21/04/2018 17:00 26,5 C 33 % 1017,9 hPa 0,0 l/m 5,8 km/h (2 Bft) S-SE 1,00 h 0,432 mm 423 W/m 9,0 C 26,5 C 9,9 km/h (2 Bft)
21/04/2018 18:00 25,4 C 35 % 1017,9 hPa 0,0 l/m 4,9 km/h (1 Bft) S 1,00 h 0,330 mm 244 W/m 8,8 C 25,4 C 8,5 km/h (2 Bft)
21/04/2018 19:00 23,8 C 39 % 1017,6 hPa 0,0 l/m 1,0 km/h (0 Bft) S 0,37 h 0,203 mm 69 W/m 9,2 C 23,8 C 2,4 km/h (1 Bft)
21/04/2018 20:00 22,0 C 47 % 1017,6 hPa 0,0 l/m 0,0 km/h (0 Bft) N 0,03 h 0,076 mm 10 W/m 10,2 C 22,0 C 0,0 km/h (0 Bft)
21/04/2018 21:00 19,8 C 55 % 1017,9 hPa 0,0 l/m 0,0 km/h (0 Bft) N 0,00 h 0,025 mm 0 W/m 10,5 C 19,8 C 0,0 km/h (0 Bft)
21/04/2018 22:00 19,0 C 53 % 1018,0 hPa 0,0 l/m 0,0 km/h (0 Bft) N 0,00 h 0,051 mm 0 W/m 9,2 C 19,0 C 0,0 km/h (0 Bft)
21/04/2018 23:00 19,0 C 50 % 1017,8 hPa 0,0 l/m 0,0 km/h (0 Bft) N 0,00 h 0,051 mm 0 W/m 8,2 C 19,0 C 0,2 km/h (0 Bft)
22/04/2018 00:00 18,6 C 49 % 1017,7 hPa 0,0 l/m 0,0 km/h (0 Bft) N 0,00 h 0,051 mm 0 W/m 7,6 C 18,6 C 0,1 km/h (0 Bft)
22/04/2018 01:00 18,3 C 47 % 1017,6 hPa 0,0 l/m 0,0 km/h (0 Bft) N 0,00 h 0,051 mm 0 W/m 6,8 C 18,3 C 0,0 km/h (0 Bft)
22/04/2018 02:00 18,4 C 46 % 1017,2 hPa 0,0 l/m 0,0 km/h (0 Bft) N 0,00 h 0,051 mm 0 W/m 6,4 C 18,4 C 0,1 km/h (0 Bft)
22/04/2018 03:00 18,6 C 45 % 1016,7 hPa 0,0 l/m 0,3 km/h (0 Bft) S 0,00 h 0,051 mm 0 W/m 6,5 C 18,6 C 1,4 km/h (1 Bft)
22/04/2018 04:00 18,4 C 46 % 1016,7 hPa 0,0 l/m 0,0 km/h (0 Bft) N 0,00 h 0,051 mm 0 W/m 6,7 C 18,4 C 0,1 km/h (0 Bft)
22/04/2018 05:00 17,7 C 47 % 1016,4 hPa 0,0 l/m 0,0 km/h (0 Bft) N 0,00 h 0,051 mm 0 W/m 6,3 C 17,7 C 0,0 km/h (0 Bft)
22/04/2018 06:00 17,0 C 49 % 1016,4 hPa 0,0 l/m 0,1 km/h (0 Bft) S 0,03 h 0,051 mm 10 W/m 6,2 C 17,0 C 0,7 km/h (0 Bft)
22/04/2018 07:00 16,8 C 52 % 1017,0 hPa 0,0 l/m 0,1 km/h (0 Bft) S 0,00 h 0,025 mm 32 W/m 6,8 C 16,8 C 0,2 km/h (0 Bft)
22/04/2018 08:00 17,4 C 54 % 1017,5 hPa 0,0 l/m 0,0 km/h (0 Bft) N 0,22 h 0,025 mm 124 W/m 8,1 C 17,4 C 0,3 km/h (0 Bft)
22/04/2018 09:00 20,4 C 50 % 1017,6 hPa 0,0 l/m 0,2 km/h (0 Bft) S 1,00 h 0,076 mm 451 W/m 9,5 C 20,4 C 1,1 km/h (1 Bft)
22/04/2018 10:00 23,1 C 45 % 1017,9 hPa 0,0 l/m 2,9 km/h (1 Bft) E-SE 1,00 h 0,279 mm 617 W/m 10,5 C 23,1 C 6,2 km/h (2 Bft)
22/04/2018 11:00 23,2 C 47 % 1018,2 hPa 0,0 l/m 2,5 km/h (1 Bft) E-SE 1,00 h 0,406 mm 744 W/m 11,4 C 23,2 C 6,3 km/h (2 Bft)
22/04/2018 12:00 24,2 C 47 % 1017,9 hPa 0,0 l/m 3,7 km/h (1 Bft) E-SE 1,00 h 0,483 mm 823 W/m 12,1 C 24,2 C 7,9 km/h (2 Bft)
22/04/2018 13:00 24,0 C 50 % 1017,8 hPa 0,0 l/m 4,9 km/h (1 Bft) E 1,00 h 0,533 mm 849 W/m 12,9 C 24,0 C 10,2 km/h (2 Bft)
22/04/2018 14:00 23,9 C 55 % 1017,8 hPa 0,0 l/m 4,2 km/h (1 Bft) E 1,00 h 0,559 mm 816 W/m 14,2 C 23,9 C 9,2 km/h (2 Bft)
22/04/2018 15:00 23,8 C 55 % 1017,7 hPa 0,0 l/m 3,3 km/h (1 Bft) E-SE 1,00 h 0,533 mm 727 W/m 14,1 C 23,8 C 7,3 km/h (2 Bft)
22/04/2018 16:00 23,6 C 53 % 1017,1 hPa 0,0 l/m 3,8 km/h (1 Bft) E-SE 1,00 h 0,457 mm 599 W/m 13,3 C 23,6 C 7,3 km/h (2 Bft)
22/04/2018 17:00 23,1 C 52 % 1016,9 hPa 0,0 l/m 1,7 km/h (1 Bft) E-SE 1,00 h 0,406 mm 424 W/m 12,7 C 23,1 C 4,3 km/h (1 Bft)
22/04/2018 18:00 22,3 C 53 % 1016,9 hPa 0,0 l/m 0,3 km/h (0 Bft) E-SE 0,88 h 0,279 mm 243 W/m 12,3 C 22,3 C 1,4 km/h (1 Bft)
22/04/2018 19:00 20,3 C 61 % 1017,0 hPa 0,0 l/m 0,0 km/h (0 Bft) N 0,08 h 0,152 mm 51 W/m 12,6 C 20,3 C 0,0 km/h (0 Bft)
22/04/2018 20:00 18,1 C 72 % 1017,1 hPa 0,0 l/m 0,0 km/h (0 Bft) N 0,00 h 0,025 mm 9 W/m 13,0 C 18,1 C 0,0 km/h (0 Bft)
22/04/2018 21:00 16,5 C 76 % 1017,5 hPa 0,0 l/m 0,0 km/h (0 Bft) N 0,00 h 0,000 mm 0 W/m 12,2 C 16,5 C 0,0 km/h (0 Bft)
22/04/2018 22:00 15,9 C 73 % 1018,0 hPa 0,0 l/m 0,0 km/h (0 Bft) N 0,00 h 0,025 mm 0 W/m 11,1 C 15,9 C 0,0 km/h (0 Bft)
22/04/2018 23:00 16,2 C 72 % 1017,9 hPa 0,0 l/m 0,0 km/h (0 Bft) N 0,00 h 0,025 mm 0 W/m 11,3 C 16,2 C 0,0 km/h (0 Bft)
Min-Date _ 17/04/18 20/04/18 16/04/18 - 16/04/18 - - - - 21/04/18 17/04/18 16/04/18
_ Min-Heure 06:42 17:12 05:30 - 00:55 - - - - 06:49 06:42 00:55
Minimum _ 11,3 C 28 % 1008,6 hPa - 0,0 km/h (0 Bft) - - - - 4,2 C 11,3 C 0,0 km/h (0 Bft)
Max-Date _ 21/04/18 17/04/18 18/04/18 16/04/18 16/04/18 - 16/04/18 21/04/18 18/04/18 17/04/18 21/04/18 16/04/18
_ Max-Heure 15:06 05:22 11:45 00:00 14:19 - 08:44 14:00 13:58 14:24 15:06 14:19
Maximum _ 28,3 C 94 % 1027,0 hPa 0,0 l/m 12,9 km/h
S-SE (3 Bft)
- 0,02 h 0,584 mm 874 W/m 16,4 C 28,3 C 22,5 km/h
S-SE (4 Bft)
Moyenne _ 19,7 C 54 % 1020,1 hPa #0,0 l/m 0,9 km/h (0 Bft) E-SE #72:48 h #31,047 mm 422 W/m 9,5 C 19,7 C 2,4 km/h (1 Bft)
Roquefort les pins